Time;durP1;ratioP1;P1;durP2;ratioP2;P2;SDS_P1;SDS_P2;PMS_P1;PMS_P2;Temp;Humidity;BMP_temperature;BMP_pressure;BME280_temperature;BME280_humidity;BME280_pressure;Samples;Min_cycle;Max_cycle;Signal;HPM_P1;HPM_P2
2022/01/09 00:00:57;;;;;;;1.73;1.23;;;5.30;96.40;;;;;;5070987;28;20044;-73
2022/01/09 00:03:23;;;;;;;3.20;1.77;;;5.30;96.50;;;;;;5071174;28;20044;-72
2022/01/09 00:05:49;;;;;;;2.67;1.27;;;5.30;96.20;;;;;;5070955;28;20037;-72
2022/01/09 00:08:15;;;;;;;4.65;1.42;;;5.30;96.30;;;;;;5070799;28;20089;-72
2022/01/09 00:10:46;;;;;;;2.67;1.33;;;5.30;96.20;;;;;;5064848;28;20041;-73
2022/01/09 00:13:12;;;;;;;2.05;1.35;;;5.40;96.30;;;;;;5050756;28;20025;-72
2022/01/09 00:15:38;;;;;;;2.60;1.50;;;5.30;96.20;;;;;;5051580;28;20481;-72
2022/01/09 00:18:03;;;;;;;2.72;1.38;;;5.30;96.30;;;;;;5069783;28;20470;-72
2022/01/09 00:20:29;;;;;;;4.82;1.73;;;5.30;96.20;;;;;;5070600;28;20401;-72
2022/01/09 00:22:55;;;;;;;2.35;1.45;;;5.30;96.20;;;;;;5070535;28;20040;-72
2022/01/09 00:25:22;;;;;;;4.65;1.50;;;5.30;96.40;;;;;;5070596;28;20051;-72
2022/01/09 00:27:49;;;;;;;1.52;1.30;;;5.20;96.30;;;;;;5061829;28;20032;-72
2022/01/09 00:30:17;;;;;;;3.10;1.67;;;5.30;96.40;;;;;;5050799;28;20076;-72
2022/01/09 00:32:43;;;;;;;4.82;1.92;;;5.30;96.40;;;;;;5050420;28;20057;-73
2022/01/09 00:35:10;;;;;;;1.60;1.38;;;5.30;96.40;;;;;;5058876;28;20476;-72
2022/01/09 00:37:36;;;;;;;3.60;1.97;;;5.30;96.50;;;;;;5054241;28;20056;-73
2022/01/09 00:40:03;;;;;;;2.67;1.80;;;5.30;96.50;;;;;;5050294;28;20033;-73
2022/01/09 00:42:28;;;;;;;2.78;1.30;;;5.30;96.50;;;;;;5049133;28;20025;-72
2022/01/09 00:44:54;;;;;;;4.03;1.95;;;5.30;96.50;;;;;;5059652;28;20416;-72
2022/01/09 00:47:19;;;;;;;2.53;1.58;;;5.30;96.50;;;;;;5074708;28;20033;-72
2022/01/09 00:49:45;;;;;;;2.28;1.40;;;5.30;96.50;;;;;;5074575;28;20121;-73
2022/01/09 00:52:10;;;;;;;2.92;1.90;;;5.40;96.60;;;;;;5074403;28;20039;-73
2022/01/09 00:54:36;;;;;;;2.35;1.58;;;5.30;96.50;;;;;;5074610;28;20032;-72
2022/01/09 00:57:02;;;;;;;3.28;2.10;;;5.40;96.60;;;;;;5074736;28;20048;-73
2022/01/09 00:59:27;;;;;;;2.90;1.73;;;5.40;96.60;;;;;;5074214;28;20037;-73
2022/01/09 01:01:53;;;;;;;4.45;1.80;;;5.40;96.60;;;;;;5073221;28;20109;-72
2022/01/09 01:04:19;;;;;;;2.92;1.83;;;5.40;96.60;;;;;;5074212;28;20120;-73
2022/01/09 01:06:45;;;;;;;4.30;2.42;;;5.40;96.70;;;;;;5073823;28;20048;-73
2022/01/09 01:09:10;;;;;;;2.10;1.40;;;5.40;96.70;;;;;;5073483;28;20052;-71
2022/01/09 01:11:36;;;;;;;8.77;2.03;;;5.40;97.00;;;;;;5059886;28;20057;-72
2022/01/09 01:14:02;;;;;;;7.60;2.13;;;5.40;96.70;;;;;;5069705;28;20132;-71
2022/01/09 01:16:28;;;;;;;7.53;2.33;;;5.40;96.80;;;;;;5053050;28;20029;-73
2022/01/09 01:18:55;;;;;;;4.78;2.05;;;5.40;96.70;;;;;;5054353;28;20351;-73
2022/01/09 01:21:25;;;;;;;2.85;2.00;;;5.50;96.70;;;;;;5053350;28;20470;-72
2022/01/09 01:23:51;;;;;;;3.90;2.20;;;5.40;96.70;;;;;;5054019;28;20051;-72
2022/01/09 01:26:17;;;;;;;4.82;2.05;;;5.40;97.10;;;;;;5053644;28;20120;-73
2022/01/09 01:28:43;;;;;;;2.20;1.67;;;5.40;96.80;;;;;;5053664;28;20120;-72
2022/01/09 01:31:10;;;;;;;3.08;1.80;;;5.40;96.80;;;;;;5053797;28;20033;-72
2022/01/09 01:33:35;;;;;;;4.70;1.95;;;5.50;96.90;;;;;;5053768;28;20089;-73
2022/01/09 01:36:02;;;;;;;2.58;1.67;;;5.50;96.80;;;;;;5054725;28;20099;-71
2022/01/09 01:38:27;;;;;;;4.20;1.83;;;5.40;96.90;;;;;;5053506;28;20044;-72
2022/01/09 01:40:53;;;;;;;2.53;1.88;;;5.40;96.90;;;;;;5059688;28;20025;-71
2022/01/09 01:43:19;;;;;;;5.60;2.20;;;5.40;96.90;;;;;;5059568;28;20032;-72
2022/01/09 01:45:44;;;;;;;3.47;2.03;;;5.40;97.00;;;;;;5053401;28;20371;-72
2022/01/09 01:48:10;;;;;;;3.22;2.00;;;5.40;97.00;;;;;;5053928;28;20406;-71
2022/01/09 01:50:38;;;;;;;7.45;2.33;;;5.40;97.00;;;;;;5053468;28;20489;-72
2022/01/09 01:53:15;;;;;;;4.63;2.25;;;5.40;97.10;;;;;;5053717;28;20093;-72
2022/01/09 01:55:41;;;;;;;2.90;1.50;;;5.40;97.10;;;;;;5053097;28;20036;-71
2022/01/09 01:58:10;;;;;;;3.38;1.70;;;5.50;97.10;;;;;;5053024;28;20031;-73
2022/01/09 02:00:37;;;;;;;4.75;1.98;;;5.40;97.10;;;;;;5053126;28;20532;-72
2022/01/09 02:03:03;;;;;;;3.10;1.83;;;5.40;97.10;;;;;;5053088;28;20111;-73
2022/01/09 02:05:29;;;;;;;3.40;1.85;;;5.40;97.10;;;;;;5053048;28;20049;-73
2022/01/09 02:07:58;;;;;;;3.92;2.00;;;5.30;97.10;;;;;;5051567;28;20060;-72
2022/01/09 02:10:23;;;;;;;2.78;1.65;;;5.40;97.30;;;;;;5057535;28;20033;-72
2022/01/09 02:12:52;;;;;;;2.85;1.50;;;5.40;97.30;;;;;;5072847;28;20047;-72
2022/01/09 02:15:32;;;;;;;4.05;2.42;;;5.40;97.40;;;;;;5073164;28;20021;-73
2022/01/09 02:17:58;;;;;;;3.58;1.80;;;5.30;97.50;;;;;;5071816;28;20032;-73
2022/01/09 02:20:24;;;;;;;1.67;1.58;;;5.30;97.60;;;;;;5072724;28;20033;-73
2022/01/09 02:22:50;;;;;;;2.95;2.03;;;5.30;97.70;;;;;;5072505;28;20039;-72
2022/01/09 02:25:16;;;;;;;4.10;1.88;;;5.30;97.80;;;;;;5072662;28;20036;-73
2022/01/09 02:27:41;;;;;;;4.57;1.95;;;5.30;97.80;;;;;;5058462;28;20025;-71
2022/01/09 02:30:08;;;;;;;3.05;1.75;;;5.30;97.90;;;;;;5052992;28;20049;-72
2022/01/09 02:32:34;;;;;;;4.28;2.10;;;5.30;97.90;;;;;;5052405;28;20052;-72
2022/01/09 02:34:59;;;;;;;5.20;1.85;;;5.30;98.00;;;;;;5052221;28;20455;-73
2022/01/09 02:37:25;;;;;;;2.97;1.77;;;5.30;98.00;;;;;;5052458;28;20644;-72
2022/01/09 02:39:50;;;;;;;4.10;1.98;;;5.30;98.10;;;;;;5051092;28;20461;-73
2022/01/09 02:42:24;;;;;;;5.00;1.55;;;5.30;98.10;;;;;;5052767;28;20540;-72
2022/01/09 02:44:51;;;;;;;2.25;1.70;;;5.30;98.20;;;;;;5052692;28;20037;-72
2022/01/09 02:47:18;;;;;;;2.80;1.45;;;5.30;98.20;;;;;;5061433;28;20097;-71
2022/01/09 02:49:48;;;;;;;4.32;1.90;;;5.20;98.20;;;;;;5054828;28;20424;-73
2022/01/09 02:52:29;;;;;;;3.40;2.10;;;5.30;98.20;;;;;;5051172;28;20025;-72
2022/01/09 02:57:52;;;;;;;4.97;1.80;;;5.30;98.10;;;;;;5051799;28;20025;-72
2022/01/09 03:00:25;;;;;;;2.85;1.23;;;5.30;98.20;;;;;;5053048;28;20020;-72
2022/01/09 03:02:52;;;;;;;4.57;1.98;;;5.40;98.20;;;;;;5051964;28;20079;-71
2022/01/09 03:05:17;;;;;;;3.38;1.55;;;5.30;98.10;;;;;;5051035;28;20120;-72
2022/01/09 03:07:44;;;;;;;3.10;1.40;;;5.40;98.10;;;;;;5051786;28;20127;-72
2022/01/09 03:10:11;;;;;;;5.03;1.80;;;5.40;98.10;;;;;;5062017;28;20060;-71
2022/01/09 03:12:37;;;;;;;2.80;1.83;;;5.40;98.10;;;;;;5071762;28;20446;-72
2022/01/09 03:15:03;;;;;;;2.13;1.67;;;5.40;98.10;;;;;;5072444;28;20055;-72
2022/01/09 03:17:29;;;;;;;3.17;1.60;;;5.40;98.00;;;;;;5070745;28;20028;-72
2022/01/09 03:19:55;;;;;;;2.80;1.63;;;5.40;98.10;;;;;;5071660;28;20036;-72
2022/01/09 03:22:20;;;;;;;3.10;2.00;;;5.50;98.20;;;;;;5071553;28;20370;-72
2022/01/09 03:24:46;;;;;;;2.35;1.60;;;5.50;98.20;;;;;;5071425;28;20125;-71
2022/01/09 03:27:12;;;;;;;2.40;1.70;;;5.40;98.30;;;;;;5072039;28;20039;-72
2022/01/09 03:29:38;;;;;;;1.90;1.48;;;5.40;98.30;;;;;;5071506;28;20029;-72
2022/01/09 03:32:05;;;;;;;3.22;1.15;;;5.40;98.40;;;;;;5070242;28;20054;-71
2022/01/09 03:34:31;;;;;;;4.63;1.88;;;5.40;98.50;;;;;;5070467;28;20035;-73
2022/01/09 03:36:57;;;;;;;2.13;1.75;;;5.40;98.60;;;;;;5071280;28;20177;-72
2022/01/09 03:39:22;;;;;;;2.75;1.75;;;5.40;98.60;;;;;;5071668;28;20448;-72
2022/01/09 03:41:48;;;;;;;2.63;1.73;;;5.40;98.60;;;;;;5071216;28;20130;-72
2022/01/09 03:44:14;;;;;;;4.10;2.08;;;5.40;98.60;;;;;;5071028;28;20386;-71
2022/01/09 03:46:40;;;;;;;2.55;1.67;;;5.40;98.50;;;;;;5070973;28;20028;-72
2022/01/09 03:49:05;;;;;;;2.10;1.65;;;5.40;98.60;;;;;;5071121;28;20050;-72
2022/01/09 03:51:37;;;;;;;1.98;1.67;;;5.40;98.50;;;;;;5070625;28;20033;-72
2022/01/09 03:54:04;;;;;;;4.88;1.67;;;5.40;98.50;;;;;;5058631;28;20032;-72
2022/01/09 03:56:29;;;;;;;3.20;1.80;;;5.50;98.50;;;;;;5069974;28;20024;-72
2022/01/09 03:58:55;;;;;;;3.83;1.73;;;5.50;98.50;;;;;;5070921;28;20029;-72
2022/01/09 04:01:21;;;;;;;1.95;1.50;;;5.50;98.50;;;;;;5071030;28;20260;-72
2022/01/09 04:03:46;;;;;;;1.80;1.48;;;5.50;98.40;;;;;;5070484;28;20373;-72
2022/01/09 04:06:12;;;;;;;1.52;1.17;;;5.40;98.40;;;;;;5071600;28;20032;-71
2022/01/09 04:08:38;;;;;;;3.35;1.88;;;5.50;98.40;;;;;;5068771;28;20036;-71
2022/01/09 04:11:05;;;;;;;2.15;1.42;;;5.50;98.40;;;;;;5070545;28;20031;-71
2022/01/09 04:13:31;;;;;;;3.58;1.45;;;5.50;98.40;;;;;;5070574;28;20041;-71
2022/01/09 04:15:56;;;;;;;3.15;1.50;;;5.50;98.50;;;;;;5070700;28;20048;-72
2022/01/09 04:18:23;;;;;;;2.72;1.40;;;5.40;98.70;;;;;;5069593;28;20443;-72
2022/01/09 04:20:51;;;;;;;2.42;1.77;;;5.40;98.50;;;;;;5070061;28;20043;-73
2022/01/09 04:23:18;;;;;;;3.63;1.25;;;5.40;98.50;;;;;;5070584;28;20059;-72
2022/01/09 04:25:44;;;;;;;1.70;1.30;;;5.40;98.50;;;;;;5064078;28;20037;-72
2022/01/09 04:28:10;;;;;;;1.80;1.40;;;5.40;98.50;;;;;;5050443;28;20040;-72
2022/01/09 04:30:37;;;;;;;5.70;1.60;;;5.50;98.60;;;;;;5050423;28;20055;-73
2022/01/09 04:33:02;;;;;;;2.38;1.65;;;5.50;98.50;;;;;;5049951;28;20032;-71
2022/01/09 04:35:28;;;;;;;2.78;1.27;;;5.60;98.50;;;;;;5049866;28;20028;-70
2022/01/09 04:37:55;;;;;;;1.90;1.42;;;5.50;98.40;;;;;;5050546;28;20087;-71
2022/01/09 04:40:21;;;;;;;2.83;1.25;;;5.50;98.40;;;;;;5050736;28;20033;-71
2022/01/09 04:42:54;;;;;;;2.30;1.38;;;5.50;98.50;;;;;;5049459;28;20029;-72
2022/01/09 04:45:21;;;;;;;2.05;1.45;;;5.50;98.50;;;;;;5050781;28;20519;-71
2022/01/09 04:47:49;;;;;;;2.63;1.20;;;5.50;98.60;;;;;;5050397;28;20040;-71
2022/01/09 04:50:21;;;;;;;2.13;1.35;;;5.50;98.70;;;;;;5050375;28;20624;-72
2022/01/09 04:52:47;;;;;;;3.28;1.73;;;5.60;98.80;;;;;;5048903;28;20044;-70
2022/01/09 04:55:13;;;;;;;2.58;1.20;;;5.60;98.90;;;;;;5049018;28;20029;-71
2022/01/09 04:57:39;;;;;;;2.67;1.30;;;5.60;99.10;;;;;;5049037;28;20025;-72
2022/01/09 05:00:07;;;;;;;2.05;1.25;;;5.50;99.30;;;;;;5060592;28;20036;-71
2022/01/09 05:02:33;;;;;;;1.33;1.23;;;5.60;99.50;;;;;;5070050;28;20112;-71
2022/01/09 05:04:58;;;;;;;2.63;1.38;;;5.60;99.50;;;;;;5070480;28;20040;-72
2022/01/09 05:07:24;;;;;;;2.00;1.30;;;5.50;99.50;;;;;;5070345;28;20037;-72
2022/01/09 05:09:49;;;;;;;2.00;1.45;;;5.50;99.70;;;;;;5069021;28;20086;-71
2022/01/09 05:12:15;;;;;;;1.77;1.35;;;5.50;99.80;;;;;;5070628;28;20094;-71
2022/01/09 05:14:41;;;;;;;1.92;1.30;;;5.50;99.90;;;;;;5070137;28;20033;-72
2022/01/09 05:17:06;;;;;;;1.58;1.20;;;5.40;99.90;;;;;;5059431;28;20063;-71
2022/01/09 05:19:34;;;;;;;2.00;1.45;;;5.40;99.90;;;;;;5049319;28;20041;-72
2022/01/09 05:22:00;;;;;;;1.98;1.30;;;5.50;99.90;;;;;;5050121;28;20414;-72
2022/01/09 05:24:26;;;;;;;2.63;1.60;;;5.40;99.90;;;;;;5049959;28;20056;-72
2022/01/09 05:26:52;;;;;;;2.28;1.10;;;5.40;99.90;;;;;;5050427;28;20568;-71
2022/01/09 05:29:17;;;;;;;3.22;1.45;;;5.40;99.90;;;;;;5048848;28;20417;-71
2022/01/09 05:31:44;;;;;;;2.45;1.08;;;5.40;99.90;;;;;;5052931;28;20025;-72
2022/01/09 05:34:09;;;;;;;2.08;1.70;;;5.40;99.90;;;;;;5054486;28;20021;-72
2022/01/09 05:36:35;;;;;;;2.03;1.30;;;5.40;99.90;;;;;;5053666;28;20086;-72
2022/01/09 05:39:01;;;;;;;1.63;1.20;;;5.30;99.90;;;;;;5054076;28;20030;-72
2022/01/09 05:41:26;;;;;;;1.10;1.00;;;5.40;99.90;;;;;;5053864;28;20065;-72
2022/01/09 05:43:52;;;;;;;1.52;1.23;;;5.40;99.90;;;;;;5053548;28;20044;-71
2022/01/09 05:46:18;;;;;;;2.35;1.52;;;5.30;99.90;;;;;;5053653;28;20037;-70
2022/01/09 05:48:43;;;;;;;1.45;1.08;;;5.40;99.90;;;;;;5053404;28;20029;-71
2022/01/09 05:51:09;;;;;;;2.42;1.33;;;5.40;99.90;;;;;;5054134;28;20108;-72
2022/01/09 05:53:34;;;;;;;1.70;1.17;;;5.40;99.90;;;;;;5052372;28;20471;-71
2022/01/09 05:56:00;;;;;;;2.20;1.20;;;5.40;99.90;;;;;;5053327;28;20455;-71
2022/01/09 05:58:26;;;;;;;1.38;0.90;;;5.30;99.90;;;;;;5052254;28;20040;-71
2022/01/09 06:00:54;;;;;;;1.15;1.05;;;5.30;99.90;;;;;;5053186;28;20147;-72
2022/01/09 06:03:19;;;;;;;1.15;1.05;;;5.30;99.90;;;;;;5053326;28;20041;-73
2022/01/09 06:05:45;;;;;;;1.55;1.33;;;5.40;99.90;;;;;;5065132;28;20477;-73
2022/01/09 06:08:10;;;;;;;2.30;1.25;;;5.20;99.90;;;;;;5053763;28;20502;-73
2022/01/09 06:10:36;;;;;;;1.50;1.20;;;5.20;99.90;;;;;;5053032;28;20041;-73
2022/01/09 06:13:01;;;;;;;1.15;0.93;;;5.30;99.90;;;;;;5053250;28;20017;-72
2022/01/09 06:15:27;;;;;;;2.13;1.35;;;5.20;99.90;;;;;;5052876;28;20472;-72
2022/01/09 06:17:52;;;;;;;1.73;1.20;;;5.30;99.90;;;;;;5053531;28;20469;-71
2022/01/09 06:20:18;;;;;;;1.20;1.10;;;5.20;99.90;;;;;;5053063;28;20122;-72
2022/01/09 06:22:44;;;;;;;1.83;1.50;;;5.30;99.90;;;;;;5052852;28;20029;-73
2022/01/09 06:25:11;;;;;;;1.30;1.20;;;5.30;99.90;;;;;;5053319;28;20447;-72
2022/01/09 06:27:36;;;;;;;1.95;1.20;;;5.30;99.90;;;;;;5052734;28;20044;-73
2022/01/09 06:30:09;;;;;;;1.67;1.30;;;5.30;99.90;;;;;;5053198;28;20042;-72
2022/01/09 06:32:35;;;;;;;1.52;1.25;;;5.30;99.90;;;;;;5051492;28;20063;-72
2022/01/09 06:35:01;;;;;;;2.08;1.42;;;5.40;99.90;;;;;;5052879;28;20036;-72
2022/01/09 06:37:27;;;;;;;1.75;1.30;;;5.40;99.90;;;;;;5052624;28;20091;-72
2022/01/09 06:39:52;;;;;;;2.40;1.40;;;5.40;99.90;;;;;;5052448;28;20047;-72
2022/01/09 06:42:18;;;;;;;1.40;1.30;;;5.40;99.90;;;;;;5052761;28;20021;-72
2022/01/09 06:44:43;;;;;;;1.55;1.17;;;5.40;99.90;;;;;;5052631;28;20044;-72
2022/01/09 06:47:09;;;;;;;1.90;1.33;;;5.40;99.90;;;;;;5052455;28;20437;-72
2022/01/09 06:49:36;;;;;;;2.10;1.33;;;5.40;99.90;;;;;;5052552;28;20048;-73
2022/01/09 06:52:03;;;;;;;2.13;1.55;;;5.40;99.90;;;;;;5052196;28;20090;-72
2022/01/09 06:54:28;;;;;;;0.80;0.80;;;5.40;99.90;;;;;;5052104;28;20032;-72
2022/01/09 06:56:54;;;;;;;1.30;1.10;;;5.50;99.90;;;;;;5051556;28;20035;-72
2022/01/09 06:59:20;;;;;;;1.50;1.20;;;5.40;99.90;;;;;;5052749;28;20044;-72
2022/01/09 07:01:45;;;;;;;1.88;1.15;;;5.40;99.90;;;;;;5051702;28;20084;-72
2022/01/09 07:04:11;;;;;;;1.67;1.30;;;5.40;99.90;;;;;;5051100;28;20033;-72
2022/01/09 07:06:36;;;;;;;1.58;1.45;;;5.50;99.90;;;;;;5051979;28;20355;-72
2022/01/09 07:09:04;;;;;;;1.83;1.30;;;5.50;99.90;;;;;;5052293;28;20025;-72
2022/01/09 07:11:29;;;;;;;0.80;0.80;;;5.50;99.90;;;;;;5063134;28;20044;-72
2022/01/09 07:13:55;;;;;;;1.65;1.27;;;5.50;99.90;;;;;;5052822;28;20021;-72
2022/01/09 07:16:21;;;;;;;2.72;1.20;;;5.50;99.90;;;;;;5052599;28;20537;-71
2022/01/09 07:18:47;;;;;;;2.22;1.00;;;5.60;99.90;;;;;;5051854;28;20033;-72
2022/01/09 07:21:12;;;;;;;1.27;1.08;;;5.50;99.90;;;;;;5051102;28;20097;-71
2022/01/09 07:23:38;;;;;;;1.50;1.30;;;5.60;99.90;;;;;;5051591;28;20458;-71
2022/01/09 07:26:03;;;;;;;1.30;1.13;;;5.60;99.90;;;;;;5051570;28;20044;-71
2022/01/09 07:28:29;;;;;;;1.05;1.00;;;5.60;99.90;;;;;;5051356;28;20421;-72
2022/01/09 07:30:55;;;;;;;1.00;0.90;;;5.60;99.90;;;;;;5051654;28;20370;-71
2022/01/09 07:33:20;;;;;;;1.17;0.75;;;5.70;99.90;;;;;;5052591;28;20040;-72
2022/01/09 07:35:46;;;;;;;0.75;0.73;;;5.70;99.90;;;;;;5051284;28;20119;-72
2022/01/09 07:38:12;;;;;;;0.77;0.75;;;5.70;99.90;;;;;;5051414;28;20048;-72
2022/01/09 07:40:37;;;;;;;1.60;0.90;;;5.60;99.90;;;;;;5051390;28;20053;-71
2022/01/09 07:43:03;;;;;;;0.57;0.57;;;5.60;99.90;;;;;;5051510;28;20040;-72
2022/01/09 07:45:29;;;;;;;1.15;0.93;;;5.70;99.90;;;;;;5050822;28;20039;-72
2022/01/09 07:47:56;;;;;;;0.65;0.57;;;5.70;99.90;;;;;;5051700;28;20021;-72
2022/01/09 07:50:23;;;;;;;0.40;0.40;;;5.70;99.90;;;;;;5063158;28;20028;-71
2022/01/09 07:52:50;;;;;;;1.05;0.70;;;5.60;99.90;;;;;;5071384;28;20033;-72
2022/01/09 07:55:18;;;;;;;1.70;0.70;;;5.70;99.90;;;;;;5069789;28;20066;-72
2022/01/09 07:57:44;;;;;;;0.80;0.80;;;5.80;99.90;;;;;;5069300;28;20089;-72
2022/01/09 08:00:11;;;;;;;0.75;0.50;;;5.80;99.90;;;;;;5071026;28;20033;-72
2022/01/09 08:02:36;;;;;;;1.00;0.73;;;5.80;99.90;;;;;;5069261;28;20363;-71
2022/01/09 08:05:02;;;;;;;4.93;0.85;;;5.70;99.90;;;;;;5069474;28;20048;-71
2022/01/09 08:07:28;;;;;;;1.17;1.05;;;5.60;99.90;;;;;;5070960;28;20028;-73
2022/01/09 08:09:53;;;;;;;0.90;0.77;;;5.70;99.90;;;;;;5070001;28;20024;-73
2022/01/09 08:12:19;;;;;;;0.40;0.40;;;5.60;99.90;;;;;;5070551;28;20024;-73
2022/01/09 08:14:45;;;;;;;0.50;0.50;;;5.60;99.90;;;;;;5070890;28;20032;-73
2022/01/09 08:17:12;;;;;;;0.75;0.70;;;5.70;99.90;;;;;;5070795;28;20048;-74
2022/01/09 08:19:38;;;;;;;0.57;0.52;;;5.60;99.90;;;;;;5070963;28;20716;-73
2022/01/09 08:22:05;;;;;;;0.65;0.45;;;5.60;99.90;;;;;;5070120;28;20043;-73
2022/01/09 08:24:32;;;;;;;0.57;0.38;;;5.60;99.90;;;;;;5070189;28;20082;-73
2022/01/09 08:26:57;;;;;;;0.70;0.68;;;5.50;99.90;;;;;;5069774;28;20028;-73
2022/01/09 08:29:23;;;;;;;1.27;0.45;;;5.60;99.90;;;;;;5070417;28;20051;-72
2022/01/09 08:31:49;;;;;;;0.80;0.70;;;5.60;99.90;;;;;;5067053;28;20028;-73
2022/01/09 08:34:14;;;;;;;0.30;0.30;;;5.60;99.90;;;;;;5069644;28;20480;-71
2022/01/09 08:36:40;;;;;;;2.38;0.70;;;5.40;99.90;;;;;;5070872;28;20078;-71
2022/01/09 08:39:06;;;;;;;1.30;0.80;;;5.40;99.90;;;;;;5070144;28;20040;-73
2022/01/09 08:41:35;;;;;;;0.70;0.68;;;5.50;99.90;;;;;;5070523;28;20044;-73
2022/01/09 08:44:01;;;;;;;1.90;0.75;;;5.50;99.90;;;;;;5069701;28;20102;-72
2022/01/09 08:46:27;;;;;;;1.05;0.95;;;5.50;99.90;;;;;;5070377;28;20044;-73
2022/01/09 08:48:53;;;;;;;1.20;0.95;;;5.60;99.90;;;;;;5070409;28;20470;-74
2022/01/09 08:51:18;;;;;;;1.63;1.27;;;5.70;99.90;;;;;;5070198;28;20063;-72
2022/01/09 08:53:50;;;;;;;5.72;2.05;;;5.70;99.90;;;;;;5070417;28;20025;-73
2022/01/09 08:56:18;;;;;;;1.83;1.05;;;5.80;99.90;;;;;;5070876;28;20052;-73
2022/01/09 08:58:44;;;;;;;1.42;1.20;;;5.70;99.90;;;;;;5069765;28;20025;-73
2022/01/09 09:01:10;;;;;;;2.08;1.15;;;5.60;99.90;;;;;;5069424;28;20035;-72
2022/01/09 09:03:40;;;;;;;1.42;0.98;;;5.60;99.90;;;;;;5069973;28;20044;-73
2022/01/09 09:06:07;;;;;;;2.00;1.13;;;5.70;99.90;;;;;;5071946;28;20070;-73
2022/01/09 09:08:33;;;;;;;2.22;1.33;;;5.70;99.90;;;;;;5074701;28;20097;-74
2022/01/09 09:10:58;;;;;;;2.70;1.35;;;5.80;99.90;;;;;;5073371;28;20045;-73
2022/01/09 09:13:24;;;;;;;3.05;1.55;;;5.90;99.90;;;;;;5073395;28;20087;-74
2022/01/09 09:15:49;;;;;;;2.92;1.83;;;5.90;99.90;;;;;;5071735;28;20055;-75
2022/01/09 09:18:15;;;;;;;2.97;1.60;;;6.00;99.90;;;;;;5074910;28;20028;-75
2022/01/09 09:20:40;;;;;;;2.13;1.48;;;6.10;99.90;;;;;;5073929;28;20259;-73
2022/01/09 09:23:06;;;;;;;3.92;1.70;;;6.10;99.90;;;;;;5074407;28;20379;-73
2022/01/09 09:25:31;;;;;;;3.05;1.63;;;6.10;99.90;;;;;;5073469;28;20306;-74
2022/01/09 09:27:57;;;;;;;3.28;1.63;;;6.20;99.90;;;;;;5073825;28;20037;-74
2022/01/09 09:30:22;;;;;;;1.70;1.50;;;6.30;99.90;;;;;;5074302;28;20036;-74
2022/01/09 09:32:48;;;;;;;2.30;1.67;;;6.30;99.90;;;;;;5073943;28;20024;-73
2022/01/09 09:35:14;;;;;;;2.97;1.60;;;6.40;99.90;;;;;;5073241;28;20123;-74
2022/01/09 09:37:40;;;;;;;2.38;1.70;;;6.40;99.90;;;;;;5071881;28;20344;-74
2022/01/09 09:40:06;;;;;;;5.15;2.15;;;6.40;99.90;;;;;;5073777;28;20032;-74
2022/01/09 09:42:32;;;;;;;2.67;2.00;;;6.40;99.90;;;;;;5073630;28;20025;-73
2022/01/09 09:45:00;;;;;;;6.93;2.63;;;6.50;99.90;;;;;;5073912;28;20028;-74
2022/01/09 09:47:26;;;;;;;7.65;2.55;;;6.60;99.90;;;;;;5073061;28;20056;-74
2022/01/09 09:49:52;;;;;;;3.22;1.90;;;6.60;99.90;;;;;;5073088;28;20514;-73
2022/01/09 09:52:19;;;;;;;7.97;2.53;;;6.60;99.90;;;;;;5072499;28;20149;-74
2022/01/09 09:54:49;;;;;;;5.43;2.25;;;6.70;99.90;;;;;;5072943;28;20039;-73
2022/01/09 09:57:15;;;;;;;5.00;2.70;;;6.60;99.90;;;;;;5072924;28;20024;-74
2022/01/09 09:59:41;;;;;;;5.35;2.35;;;6.60;99.90;;;;;;5071744;28;20383;-73
2022/01/09 10:02:12;;;;;;;7.28;3.25;;;6.60;99.90;;;;;;5057614;28;20041;-73
2022/01/09 10:05:05;;;;;;;5.68;2.72;;;6.60;99.90;;;;;;5053361;28;20025;-73
2022/01/09 10:07:32;;;;;;;7.50;2.75;;;6.60;99.90;;;;;;5053419;28;20383;-72
2022/01/09 10:10:05;;;;;;;8.32;3.67;;;6.70;99.90;;;;;;5071392;28;20136;-73
2022/01/09 10:12:32;;;;;;;10.38;3.72;;;6.70;99.90;;;;;;5072843;28;20027;-72
2022/01/09 10:15:07;;;;;;;6.53;3.33;;;6.70;99.90;;;;;;5069572;28;20026;-75
2022/01/09 10:17:34;;;;;;;13.07;3.90;;;6.80;99.90;;;;;;5052507;28;20340;-75
2022/01/09 10:20:12;;;;;;;9.02;2.95;;;6.90;99.90;;;;;;5071796;28;20046;-74
2022/01/09 10:22:48;;;;;;;10.55;3.80;;;6.90;99.90;;;;;;5071514;28;20047;-74
2022/01/09 10:25:37;;;;;;;8.90;3.50;;;6.90;99.90;;;;;;5071833;28;20032;-76
2022/01/09 10:28:14;;;;;;;13.98;3.75;;;6.90;99.90;;;;;;5071817;28;20455;-77
2022/01/09 10:30:46;;;;;;;22.40;4.15;;;7.10;99.90;;;;;;5072423;28;20473;-76
2022/01/09 10:33:15;;;;;;;14.50;4.53;;;7.20;99.90;;;;;;5074036;28;20021;-76
2022/01/09 10:35:45;;;;;;;14.90;3.53;;;7.20;99.90;;;;;;5072975;28;20029;-75
2022/01/09 10:38:13;;;;;;;22.88;5.15;;;7.20;99.90;;;;;;5071264;28;20037;-73
2022/01/09 10:40:40;;;;;;;;;;;7.20;99.90;;;;;;5073328;28;20087;-74
2022/01/09 10:43:10;;;;;;;18.20;3.92;;;7.20;99.90;;;;;;5072095;28;19916;-74
2022/01/09 10:45:38;;;;;;;17.80;3.35;;;7.20;99.90;;;;;;5071946;28;20029;-74
2022/01/09 10:48:08;;;;;;;22.83;4.00;;;7.30;99.90;;;;;;5071823;28;20024;-75
2022/01/09 10:50:37;;;;;;;19.67;4.03;;;7.30;99.90;;;;;;5071730;28;20071;-72
2022/01/09 10:53:25;;;;;;;29.80;3.85;;;7.20;99.90;;;;;;5072109;28;20116;-74
2022/01/09 10:56:09;;;;;;;;;;;7.30;99.90;;;;;;5071258;28;20075;-73
2022/01/09 10:58:47;;;;;;;16.73;3.03;;;7.30;99.90;;;;;;5066795;28;19999;-75
2022/01/09 11:01:33;;;;;;;21.63;2.83;;;7.40;99.90;;;;;;5062857;28;20120;-75
2022/01/09 11:04:08;;;;;;;23.02;3.38;;;7.40;99.90;;;;;;5065877;28;20047;-75
2022/01/09 11:06:39;;;;;;;24.45;3.92;;;7.40;99.90;;;;;;5072382;28;20066;-76
2022/01/09 11:09:06;;;;;;;23.17;3.28;;;7.50;99.90;;;;;;5072862;28;20396;-76
2022/01/09 11:11:38;;;;;;;20.57;3.77;;;7.50;99.90;;;;;;5070903;28;20474;-74
2022/01/09 11:14:07;;;;;;;31.50;3.40;;;7.40;99.90;;;;;;5062244;28;20258;-76
2022/01/09 11:16:36;;;;;;;27.08;3.70;;;7.40;99.90;;;;;;5051967;28;20044;-74
2022/01/09 11:19:08;;;;;;;19.95;3.42;;;7.40;99.90;;;;;;5051878;28;20414;-75
2022/01/09 11:21:35;;;;;;;18.42;3.17;;;7.40;99.90;;;;;;5050149;28;20037;-74
2022/01/09 11:24:10;;;;;;;13.63;3.03;;;7.40;99.90;;;;;;5052316;28;20032;-74
2022/01/09 11:27:03;;;;;;;27.48;3.33;;;7.40;99.90;;;;;;5051579;28;20044;-74
2022/01/09 11:29:49;;;;;;;18.27;2.97;;;7.40;99.90;;;;;;5050175;28;20029;-73
2022/01/09 11:32:35;;;;;;;24.83;4.70;;;7.40;99.90;;;;;;5052177;28;20029;-79
2022/01/09 11:35:24;;;;;;;13.77;2.78;;;7.50;99.90;;;;;;5051489;28;20040;-75
2022/01/09 11:38:07;;;;;;;17.85;3.47;;;7.50;99.90;;;;;;5050509;28;20029;-75
2022/01/09 11:40:37;;;;;;;19.50;4.55;;;7.50;99.90;;;;;;5047893;28;20586;-74
2022/01/09 11:43:08;;;;;;;18.77;3.67;;;7.50;99.90;;;;;;5050658;28;20039;-73
2022/01/09 11:45:43;;;;;;;17.50;3.20;;;7.40;99.90;;;;;;5051649;28;20036;-73
2022/01/09 11:48:11;;;;;;;26.98;3.60;;;7.40;99.90;;;;;;5052584;28;20017;-74
2022/01/09 11:50:57;;;;;;;15.65;2.88;;;7.30;99.90;;;;;;5051481;28;20462;-73
2022/01/09 11:53:22;;;;;;;15.00;2.83;;;7.30;99.90;;;;;;5051046;28;20455;-75
2022/01/09 11:55:48;;;;;;;11.50;2.42;;;7.40;99.90;;;;;;5051193;28;20044;-74
2022/01/09 11:58:19;;;;;;;18.52;2.60;;;7.40;99.90;;;;;;5051431;28;20406;-73
2022/01/09 12:00:44;;;;;;;17.17;2.78;;;7.40;99.90;;;;;;5058759;28;20028;-73
2022/01/09 12:03:30;;;;;;;14.07;3.25;;;7.50;99.90;;;;;;5069479;28;20063;-73
2022/01/09 12:06:03;;;;;;;17.60;3.83;;;7.40;99.90;;;;;;5070768;28;20136;-72
2022/01/09 12:09:07;;;;;;;24.55;3.08;;;7.50;99.90;;;;;;5068531;28;20051;-73
2022/01/09 12:12:03;;;;;;;15.15;2.75;;;7.50;99.90;;;;;;5039193;28;20160;-70
2022/01/09 12:14:54;;;;;;;21.15;2.58;;;7.50;99.90;;;;;;5057155;28;20049;-71
2022/01/09 12:17:23;;;;;;;12.45;2.83;;;7.40;99.90;;;;;;5069830;28;20020;-71
2022/01/09 12:20:12;;;;;;;13.98;2.75;;;7.40;99.90;;;;;;5070791;28;20025;-72
2022/01/09 12:22:48;;;;;;;20.30;3.03;;;7.40;99.90;;;;;;5053492;28;20098;-71
2022/01/09 12:25:25;;;;;;;16.30;2.97;;;7.40;99.90;;;;;;5049437;28;20049;-70
2022/01/09 12:27:56;;;;;;;15.45;2.90;;;7.40;99.90;;;;;;5061136;28;20031;-70
2022/01/09 12:30:40;;;;;;;13.90;2.60;;;7.40;99.90;;;;;;5069979;28;20075;-70
2022/01/09 12:33:10;;;;;;;13.02;2.70;;;7.50;99.90;;;;;;5071265;28;20704;-71
2022/01/09 12:35:42;;;;;;;14.77;2.45;;;7.50;99.90;;;;;;5051315;28;20354;-70
2022/01/09 12:38:14;;;;;;;15.80;3.58;;;7.50;99.90;;;;;;5051203;28;20060;-70
2022/01/09 12:40:40;;;;;;;12.13;3.17;;;7.40;99.90;;;;;;5063766;28;20044;-70
2022/01/09 12:43:07;;;;;;;14.68;2.45;;;7.40;99.90;;;;;;5069959;28;20036;-71
2022/01/09 12:45:39;;;;;;;13.50;2.65;;;7.50;99.90;;;;;;5069506;28;20086;-70
2022/01/09 12:48:06;;;;;;;16.15;2.63;;;7.60;99.90;;;;;;5069798;28;20017;-69
2022/01/09 12:50:37;;;;;;;12.85;2.97;;;7.50;99.90;;;;;;5069452;28;20025;-72
2022/01/09 12:53:28;;;;;;;12.98;2.67;;;7.60;99.90;;;;;;5070162;28;20115;-70
2022/01/09 12:56:04;;;;;;;16.02;2.60;;;7.60;99.90;;;;;;5070077;28;20032;-71
2022/01/09 12:58:29;;;;;;;13.43;3.10;;;7.60;99.90;;;;;;5070378;28;20032;-71
2022/01/09 13:00:56;;;;;;;14.18;3.20;;;7.60;99.90;;;;;;5069296;28;20443;-70
2022/01/09 13:03:25;;;;;;;14.52;2.60;;;7.70;99.90;;;;;;5070226;28;20056;-71